Latest Weather Observations for Ivanhoe Airport

IDN60801

Issued at 11:03 pm EST Monday 6 July 2015 (issued every 30 minutes, with the page automatically refreshed every 10 minutes)

About weather observations | Map of weather stations | Latest weather observations for NSW | Other Formats
Station Details ID: 049000 Name: IVANHOE AERODROME AWS Lat: -32.88 Lon: 144.31 Height: 100.0 m
Data from the previous 72 hours. | See also: Recent months at Ivanhoe Airport
Date/Time
EST
Temp
°C
App
Temp
°C
Dew
Point
Rel
Hum
%
Delta-T
°C
Wind Press
QNH
hPa
Press
MSL
hPa
Rain
since 9 am
mm
Dir
 
Spd
km/h
Gust
km/h
Spd
kts
Gust
kts
06/11:00pm 11.5 9.0 6.6 72 2.3 WNW 9 17 5 9 1019.3 1019.4 0.0
06/10:30pm 12.2 8.4 6.0 66 2.9 N 15 20 8 11 1018.9 1019.0 0.0
06/10:00pm 12.3 9.3 5.9 65 3.0 NNW 11 15 6 8 1018.8 1018.9 0.0
06/09:30pm 12.3 9.3 5.9 65 3.0 NNW 11 15 6 8 1018.8 1018.9 0.0
06/09:00pm 12.4 9.7 5.8 64 3.1 N 9 13 5 7 1018.7 1018.8 0.0
06/08:30pm 13.3 10.2 5.7 60 3.6 NNW 11 13 6 7 1018.6 1018.7 0.0
06/08:00pm 13.5 10.4 5.7 59 3.7 NNW 11 13 6 7 1018.5 1018.6 0.0
06/07:30pm 13.7 10.9 5.3 57 4.0 NNW 9 13 5 7 1018.6 1018.7 0.0
06/07:00pm 13.8 11.4 5.4 57 4.0 NNW 7 9 4 5 1018.2 1018.3 0.0
06/06:30pm 14.2 11.8 5.3 55 4.2 NW 7 9 4 5 1017.8 1017.9 0.0
06/06:00pm 14.4 11.7 5.5 55 4.2 NW 9 11 5 6 1017.5 1017.6 0.0
06/05:30pm 14.6 11.8 5.1 53 4.5 NW 9 11 5 6 1017.3 1017.4 0.0
06/05:00pm 15.9 11.9 4.9 48 5.2 NW 15 20 8 11 1017.0 1017.1 0.0
06/04:30pm 16.8 12.8 5.1 46 5.6 NW 15 22 8 12 1016.9 1017.0 0.0
06/04:00pm 16.8 13.2 4.8 45 5.7 WNW 13 19 7 10 1016.8 1016.9 0.0
06/03:30pm 17.0 12.6 5.0 45 5.8 WNW 17 20 9 11 1017.1 1017.2 0.0
06/03:00pm 17.1 12.8 5.1 45 5.8 WNW 17 24 9 13 1017.1 1017.2 0.0
06/02:30pm 17.0 12.2 4.7 44 5.9 WNW 19 30 10 16 1017.1 1017.2 0.0
06/02:00pm 16.7 12.3 5.0 46 5.6 WNW 17 24 9 13 1017.3 1017.4 0.0
06/01:30pm 16.5 12.6 5.5 48 5.3 WNW 15 26 8 14 1017.7 1017.8 0.0
06/01:00pm 16.1 11.5 5.4 49 5.1 WNW 19 24 10 13 1018.0 1018.1 0.0
06/12:30pm 15.3 10.5 4.9 50 4.9 WNW 19 30 10 16 1018.3 1018.4 0.0
06/12:00pm 14.9 10.3 5.7 54 4.4 WNW 19 26 10 14 1018.9 1019.0 0.0
06/11:30am 13.9 9.2 5.3 56 4.1 WNW 19 26 10 14 1019.1 1019.2 0.0
06/11:00am 13.5 9.6 5.4 58 3.8 WNW 15 19 8 10 1019.1 1019.2 0.0
06/10:30am 12.1 8.9 5.0 62 3.3 NW 11 15 6 8 1019.3 1019.4 0.0
06/10:00am 10.2 6.4 3.9 65 2.8 NW 13 17 7 9 1019.3 1019.4 0.0
06/09:30am 9.4 5.5 3.6 67 2.5 NNW 13 17 7 9 1019.0 1019.1 0.0
06/09:00am 7.5 3.5 2.8 72 2.0 NNW 13 19 7 10 1018.8 1018.9 0.0
06/08:30am 5.7 1.5 1.8 76 1.6 NNW 13 19 7 10 1018.9 1019.0 0.0
06/08:00am 4.6 0.4 1.8 82 1.1 N 13 20 7 11 1018.8 1018.9 0.0
06/07:30am 3.7 -0.5 1.4 85 0.9 N 13 17 7 9 1018.7 1018.8 0.0
06/07:00am 3.9 -0.4 1.3 83 1.0 N 13 15 7 8 1018.5 1018.6 0.0
06/06:30am 4.2 0.0 1.4 82 1.1 N 13 15 7 8 1018.3 1018.4 0.0
06/06:00am 5.0 0.8 1.7 79 1.3 NNW 13 17 7 9 1018.3 1018.4 0.0
06/05:30am 4.6 0.4 1.5 80 1.2 NNW 13 17 7 9 1018.2 1018.3 0.0
06/05:00am 4.7 0.5 1.6 80 1.2 NNW 13 17 7 9 1018.1 1018.2 0.0
06/04:30am 4.8 0.2 1.3 78 1.4 NNW 15 17 8 9 1018.3 1018.4 0.0
06/04:00am 5.2 0.6 1.5 77 1.5 NW 15 17 8 9 1018.4 1018.5 0.0
06/03:30am 5.2 0.6 1.3 76 1.5 NNW 15 17 8 9 1018.5 1018.6 0.0
06/03:00am 5.0 0.8 1.5 78 1.4 NNW 13 17 7 9 1018.6 1018.7 0.0
06/02:30am 5.4 1.2 1.5 76 1.6 NNW 13 17 7 9 1018.9 1019.0 0.0
06/02:00am 5.8 1.2 1.5 74 1.7 NNW 15 17 8 9 1019.1 1019.2 0.0
06/01:30am 6.4 2.2 1.9 73 1.8 NNW 13 15 7 8 1019.3 1019.4 0.0
06/01:00am 6.2 2.4 1.7 73 1.8 N 11 15 6 8 1019.4 1019.5 0.0
06/12:30am 5.9 2.1 1.6 74 1.7 N 11 13 6 7 1019.5 1019.6 0.0
06/12:00am 7.0 2.8 1.9 70 2.1 N 13 15 7 8 1019.9 1020.0 0.0
 
Date/Time
EST
Temp
°C
App
Temp
°C
Dew
Point
Rel
Hum
%
Delta-T
°C
Wind Press
QNH
hPa
Press
MSL
hPa
Rain
since 9 am
mm
Dir
 
Spd
km/h
Gust
km/h
Spd
kts
Gust
kts
05/11:30pm 6.8 2.6 1.9 71 2.0 N 13 15 7 8 1019.8 1019.9 0.0
05/11:00pm 6.2 2.1 2.1 75 1.7 N 13 15 7 8 1020.0 1020.1 0.0
05/10:30pm 6.0 2.2 1.7 74 1.7 N 11 11 6 6 1020.1 1020.2 0.0
05/10:00pm 7.2 3.8 1.9 69 2.2 N 9 9 5 5 1020.2 1020.3 0.0
05/09:30pm 7.5 4.2 2.2 69 2.2 NW 9 9 5 5 1020.2 1020.3 0.0
05/09:00pm 6.7 5.1 2.4 74 1.8 CALM 0 0 0 0 1020.2 1020.3 0.0
05/08:30pm 7.0 5.3 2.1 71 2.0 CALM 0 0 0 0 1020.3 1020.4 0.0
05/08:00pm 8.4 6.8 2.4 66 2.5 CALM 0 6 0 3 1020.3 1020.4 0.0
05/07:30pm 7.9 4.9 2.2 67 2.4 WSW 7 9 4 5 1020.2 1020.3 0.0
05/07:00pm 9.7 6.4 2.3 60 3.1 N 9 11 5 6 1020.1 1020.2 0.0
05/06:30pm 9.9 6.9 2.3 59 3.2 NNW 7 9 4 5 1020.0 1020.1 0.0
05/06:00pm 10.6 8.2 2.2 56 3.6 NNW 4 9 2 5 1019.7 1019.8 0.0
05/05:30pm 11.9 9.5 2.1 51 4.2 NNW 4 7 2 4 1019.5 1019.6 0.0
05/05:00pm 13.4 11.0 2.0 46 5.0 NW 4 7 2 4 1019.3 1019.4 0.0
05/04:30pm 13.8 12.0 1.5 43 5.3 CALM 0 2 0 1 1019.4 1019.5 0.0
05/04:00pm 14.4 12.3 2.0 43 5.4 WNW 2 6 1 3 1019.5 1019.6 0.0
05/03:30pm 14.1 11.7 2.4 45 5.2 N 4 9 2 5 1019.8 1019.9 0.0
05/03:00pm 13.9 10.9 2.2 45 5.1 WNW 7 13 4 7 1019.9 1020.0 0.0
05/02:30pm 13.8 10.5 2.4 46 5.0 NNW 9 13 5 7 1020.1 1020.2 0.0
05/02:00pm 13.3 10.3 2.2 47 4.8 NW 7 13 4 7 1020.4 1020.5 0.0
05/01:30pm 13.3 10.7 3.4 51 4.5 WNW 6 15 3 8 1020.6 1020.7 0.0
05/01:00pm 12.5 8.1 2.7 51 4.3 NW 15 19 8 10 1021.0 1021.1 0.0
05/12:30pm 12.4 8.8 2.8 52 4.2 NW 11 19 6 10 1021.5 1021.6 0.0
05/12:00pm 11.9 8.3 2.9 54 3.9 NW 11 20 6 11 1022.0 1022.1 0.0
05/11:30am 11.7 8.5 3.0 55 3.8 NW 9 13 5 7 1022.7 1022.8 0.0
05/11:00am 10.6 7.4 3.2 60 3.2 WNW 9 11 5 6 1023.1 1023.2 0.0
05/10:30am 9.4 6.6 3.2 65 2.7 WNW 7 11 4 6 1023.4 1023.5 0.0
05/10:00am 7.8 4.6 3.1 72 2.0 N 9 11 5 6 1023.2 1023.3 0.0
05/09:30am 6.1 2.9 3.1 81 1.3 NNE 9 13 5 7 1023.0 1023.1 0.0
05/09:00am 4.5 1.3 2.8 89 0.7 NE 9 11 5 6 1022.9 1023.0 0.2
05/08:30am 3.1 0.2 2.8 98 0.1 ENE 7 9 4 5 1022.8 1022.9 0.2
05/08:00am 1.6 -1.3 1.5 99 0.0 NE 6 9 3 5 1022.9 1023.0 0.0
05/07:30am 0.5 -2.8 0.4 99 0.0 NE 7 7 4 4 1022.7 1022.8 0.0
05/07:00am 0.9 -2.7 0.6 98 0.1 NE 9 9 5 5 1022.5 1022.6 0.0
05/06:30am 0.9 -1.8 0.3 96 0.2 NE 4 7 2 4 1022.4 1022.5 0.0
05/06:00am 1.8 -1.7 1.4 97 0.2 NE 9 11 5 6 1022.2 1022.3 0.0
05/05:30am 1.7 -1.8 1.1 96 0.2 ENE 9 11 5 6 1022.1 1022.2 0.0
05/05:00am 1.8 -2.1 1.1 95 0.3 ENE 11 11 6 6 1022.0 1022.1 0.0
05/04:30am 2.2 -0.9 1.3 94 0.3 ENE 7 9 4 5 1022.0 1022.1 0.0
05/04:00am 2.6 -0.5 1.6 93 0.4 ENE 7 9 4 5 1022.2 1022.3 0.0
05/03:30am 2.5 -1.0 1.2 91 0.5 ENE 9 11 5 6 1022.1 1022.2 0.0
05/03:00am 2.9 -0.6 1.4 90 0.6 ENE 9 11 5 6 1022.2 1022.3 0.0
05/02:30am 3.3 -0.5 1.7 89 0.6 ENE 11 13 6 7 1022.3 1022.4 0.0
05/02:00am 3.2 -0.6 1.6 89 0.6 E 11 13 6 7 1022.5 1022.6 0.0
05/01:30am 3.6 0.3 2.3 91 0.5 E 9 11 5 6 1023.1 1023.2 0.0
05/01:00am 3.1 0.0 1.3 88 0.7 E 7 7 4 4 1023.4 1023.5 0.0
05/12:30am 3.6 1.9 1.6 87 0.8 CALM 0 0 0 0 1023.6 1023.7 0.0
05/12:00am 3.7 2.0 1.9 88 0.7 CALM 0 0 0 0 1023.8 1023.9 0.0
 
Date/Time
EST
Temp
°C
App
Temp
°C
Dew
Point
Rel
Hum
%
Delta-T
°C
Wind Press
QNH
hPa
Press
MSL
hPa
Rain
since 9 am
mm
Dir
 
Spd
km/h
Gust
km/h
Spd
kts
Gust
kts
04/11:30pm 4.3 1.8 1.8 84 1.0 E 4 7 2 4 1023.7 1023.8 0.0
04/11:00pm 4.7 1.4 2.2 84 1.0 E 9 9 5 5 1023.6 1023.7 0.0
04/10:30pm 4.9 1.9 1.7 80 1.3 ENE 7 9 4 5 1023.6 1023.7 0.0
04/10:00pm 5.3 2.3 2.0 79 1.3 ENE 7 9 4 5 1023.6 1023.7 0.0
04/09:30pm 6.0 2.7 2.3 77 1.5 ENE 9 9 5 5 1023.4 1023.5 0.0
04/09:00pm 6.2 2.9 2.3 76 1.6 ENE 9 9 5 5 1023.5 1023.6 0.0
04/08:30pm 6.5 2.8 2.4 75 1.7 ENE 11 13 6 7 1023.4 1023.5 0.0
04/08:00pm 6.8 3.5 2.3 73 1.8 ENE 9 11 5 6 1023.6 1023.7 0.0
04/07:30pm 7.3 4.0 2.4 71 2.0 ENE 9 11 5 6 1023.6 1023.7 0.0
04/07:00pm 7.6 4.3 2.5 70 2.1 E 9 9 5 5 1023.6 1023.7 0.0
04/06:30pm 7.9 4.9 2.2 67 2.4 ENE 7 9 4 5 1023.6 1023.7 0.0
04/06:00pm 8.7 5.4 2.7 66 2.5 E 9 11 5 6 1023.3 1023.4 0.0
04/05:30pm 9.8 7.1 2.4 60 3.2 ESE 6 7 3 4 1023.4 1023.5 0.0
04/05:00pm 11.2 9.2 2.5 55 3.7 SSE 2 9 1 5 1023.4 1023.5 0.0
04/04:30pm 11.6 7.9 2.4 53 4.0 SE 11 15 6 8 1023.3 1023.4 0.0
04/04:00pm 11.8 8.1 2.3 52 4.1 SE 11 17 6 9 1023.4 1023.5 0.0
04/03:30pm 12.2 8.9 2.4 51 4.3 ESE 9 17 5 9 1023.5 1023.6 0.0
04/03:00pm 12.0 8.6 1.9 50 4.3 SSE 9 17 5 9 1023.5 1023.6 0.0
04/02:30pm 12.1 8.7 1.7 49 4.5 E 9 15 5 8 1023.4 1023.5 0.0
04/02:00pm 11.9 8.5 1.8 50 4.3 SE 9 15 5 8 1023.7 1023.8 0.0
04/01:30pm 11.8 9.5 2.5 53 4.0 E 4 13 2 7 1024.0 1024.1 0.0
04/01:00pm 11.9 9.2 2.6 53 4.0 SSE 6 11 3 6 1024.5 1024.7 0.0
04/12:30pm 11.7 9.1 3.2 56 3.8 E 6 9 3 5 1025.0 1025.2 0.0
04/12:00pm 11.4 8.5 2.7 55 3.8 NW 7 9 4 5 1025.4 1025.6 0.0
04/11:30am 11.2 9.2 2.2 54 3.9 NW 2 9 1 5 1026.1 1026.3 0.0
04/11:00am 10.0 8.4 2.6 60 3.2 CALM 0 4 0 2 1026.3 1026.5 0.0
04/10:30am 9.1 6.4 2.9 65 2.7 NNW 6 7 3 4 1026.4 1026.6 0.0
04/10:00am 8.7 6.0 3.9 72 2.1 NNE 7 11 4 6 1026.3 1026.5 0.0
04/09:30am 7.1 4.4 3.9 80 1.4 NNE 7 11 4 6 1026.0 1026.2 0.0
04/09:00am 5.1 3.2 2.8 85 0.9 NNE 2 7 1 4 1025.8 1026.0 0.0
04/08:30am 4.6 1.4 2.8 88 0.7 NNE 9 11 5 6 1025.7 1025.9 0.0
04/08:00am 2.8 -0.6 1.6 92 0.5 NNE 9 11 5 6 1025.5 1025.7 0.0
04/07:30am 2.1 -1.8 0.9 92 0.5 NNE 11 11 6 6 1025.4 1025.6 0.0
04/07:00am 2.8 -0.7 1.2 89 0.6 NNE 9 11 5 6 1025.1 1025.3 0.0
04/06:30am 2.8 -0.7 1.2 89 0.6 NE 9 11 5 6 1024.8 1025.0 0.0
04/06:00am 3.0 -0.5 1.1 87 0.7 NNE 9 11 5 6 1024.7 1024.9 0.0
04/05:30am 3.8 0.3 1.4 84 0.9 NE 9 9 5 5 1024.8 1025.0 0.0
04/05:00am 3.9 0.4 1.4 84 1.0 NE 9 9 5 5 1024.8 1025.0 0.0
04/04:30am 3.9 0.5 1.6 85 0.9 NE 9 9 5 5 1024.8 1025.0 0.0
04/04:00am 3.7 0.3 1.9 88 0.7 NE 9 11 5 6 1024.9 1025.1 0.0
04/03:30am 3.4 -0.4 1.8 89 0.6 NE 11 11 6 6 1025.0 1025.2 0.0
04/03:00am 3.3 0.2 1.5 88 0.7 NE 7 9 4 5 1025.1 1025.3 0.0
04/02:30am 4.2 1.2 1.7 84 1.0 ENE 7 9 4 5 1025.3 1025.5 0.0
04/02:00am 4.1 1.2 1.5 83 1.0 E 6 7 3 4 1025.5 1025.7 0.0
04/01:30am 4.3 1.3 1.0 79 1.3 ESE 6 6 3 3 1025.6 1025.8 0.0
04/01:00am 4.7 1.8 1.4 79 1.3 ESE 6 7 3 4 1025.8 1026.0 0.0
04/12:30am 5.2 2.3 1.5 77 1.5 ESE 6 6 3 3 1026.1 1026.3 0.0
04/12:00am 5.4 2.6 1.9 78 1.4 ESE 6 7 3 4 1026.4 1026.6 0.0
 
Date/Time
EST
Temp
°C
App
Temp
°C
Dew
Point
Rel
Hum
%
Delta-T
°C
Wind Press
QNH
hPa
Press
MSL
hPa
Rain
since 9 am
mm
Dir
 
Spd
km/h
Gust
km/h
Spd
kts
Gust
kts
03/11:30pm 5.5 2.6 2.7 82 1.2 ESE 7 9 4 5 1026.4 1026.6 0.0

Other Formats:

Comma delimited format used in spreadsheet applications
http://www.bom.gov.au/fwo/IDN60801/IDN60801.95697.axf

JavaScript Object Notation format (JSON) in row-major order
http://www.bom.gov.au/fwo/IDN60801/IDN60801.95697.json